Terminal Aerodrome Forecast
Issued by NWS

Home | Current Version | Previous Version | Text Only | Print | Product List | Glossary On
Versions: 1 2 3 4 5 6 7 8 9 10 11 12 13 14 15 16 17 18 19 20 21 22
486
FTUS43 KEAX 190520
TAFSTJ
TAF
KSTJ 190520Z 1906/2006 VRB03KT P6SM SCT250
     FM190800 18004KT 3SM BR BKN010
     FM191500 17009KT P6SM SCT020 BKN200
     FM200100 15008KT P6SM BKN020=

USA.gov is the U.S. government's official web portal to all federal, state and local government web resources and services.